sensor_id;sensor_type;location;lat;lon;timestamp;P1;durP1;ratioP1;P2;durP2;ratioP2
1306;SDS011;646;48.696;9.114;2022-08-19T00:00:41;15.53;;;13.93;;
1306;SDS011;646;48.696;9.114;2022-08-19T00:03:07;13.90;;;12.60;;
1306;SDS011;646;48.696;9.114;2022-08-19T00:05:33;14.00;;;12.70;;
1306;SDS011;646;48.696;9.114;2022-08-19T00:07:59;14.83;;;13.63;;
1306;SDS011;646;48.696;9.114;2022-08-19T00:10:25;14.57;;;13.17;;
1306;SDS011;646;48.696;9.114;2022-08-19T00:12:50;14.50;;;13.00;;
1306;SDS011;646;48.696;9.114;2022-08-19T00:15:17;15.47;;;13.97;;
1306;SDS011;646;48.696;9.114;2022-08-19T00:17:45;14.57;;;13.17;;
1306;SDS011;646;48.696;9.114;2022-08-19T00:20:12;13.70;;;12.17;;
1306;SDS011;646;48.696;9.114;2022-08-19T00:22:43;14.43;;;12.93;;
1306;SDS011;646;48.696;9.114;2022-08-19T00:25:09;14.80;;;13.30;;
1306;SDS011;646;48.696;9.114;2022-08-19T00:27:36;14.83;;;13.53;;
1306;SDS011;646;48.696;9.114;2022-08-19T00:30:02;13.53;;;12.23;;
1306;SDS011;646;48.696;9.114;2022-08-19T00:32:29;14.20;;;12.70;;
1306;SDS011;646;48.696;9.114;2022-08-19T00:34:54;14.43;;;13.13;;
1306;SDS011;646;48.696;9.114;2022-08-19T00:37:21;14.80;;;13.40;;
1306;SDS011;646;48.696;9.114;2022-08-19T00:39:48;14.77;;;13.27;;
1306;SDS011;646;48.696;9.114;2022-08-19T00:42:15;14.23;;;12.93;;
1306;SDS011;646;48.696;9.114;2022-08-19T00:44:41;15.00;;;13.50;;
1306;SDS011;646;48.696;9.114;2022-08-19T00:47:08;13.83;;;12.47;;
1306;SDS011;646;48.696;9.114;2022-08-19T00:49:35;14.37;;;12.90;;
1306;SDS011;646;48.696;9.114;2022-08-19T00:52:07;15.20;;;13.70;;
1306;SDS011;646;48.696;9.114;2022-08-19T00:54:39;15.47;;;13.90;;
1306;SDS011;646;48.696;9.114;2022-08-19T00:57:07;15.47;;;13.93;;
1306;SDS011;646;48.696;9.114;2022-08-19T00:59:37;15.40;;;13.90;;
1306;SDS011;646;48.696;9.114;2022-08-19T01:02:05;16.50;;;13.70;;
1306;SDS011;646;48.696;9.114;2022-08-19T01:04:31;15.97;;;14.40;;
1306;SDS011;646;48.696;9.114;2022-08-19T01:06:56;15.60;;;14.10;;
1306;SDS011;646;48.696;9.114;2022-08-19T01:09:22;15.97;;;14.47;;
1306;SDS011;646;48.696;9.114;2022-08-19T01:11:49;17.50;;;13.53;;
1306;SDS011;646;48.696;9.114;2022-08-19T01:14:15;14.63;;;13.13;;
1306;SDS011;646;48.696;9.114;2022-08-19T01:16:42;15.47;;;13.87;;
1306;SDS011;646;48.696;9.114;2022-08-19T01:19:17;14.17;;;12.77;;
1306;SDS011;646;48.696;9.114;2022-08-19T01:21:57;13.73;;;12.10;;
1306;SDS011;646;48.696;9.114;2022-08-19T01:24:33;15.57;;;14.07;;
1306;SDS011;646;48.696;9.114;2022-08-19T01:26:58;16.37;;;13.90;;
1306;SDS011;646;48.696;9.114;2022-08-19T01:29:24;16.80;;;15.13;;
1306;SDS011;646;48.696;9.114;2022-08-19T01:31:49;15.87;;;14.27;;
1306;SDS011;646;48.696;9.114;2022-08-19T01:34:17;16.27;;;14.67;;
1306;SDS011;646;48.696;9.114;2022-08-19T01:36:44;17.40;;;15.47;;
1306;SDS011;646;48.696;9.114;2022-08-19T01:39:13;16.57;;;14.87;;
1306;SDS011;646;48.696;9.114;2022-08-19T01:41:41;18.77;;;14.83;;
1306;SDS011;646;48.696;9.114;2022-08-19T01:44:08;15.90;;;14.20;;
1306;SDS011;646;48.696;9.114;2022-08-19T01:46:34;15.93;;;14.37;;
1306;SDS011;646;48.696;9.114;2022-08-19T01:49:00;15.93;;;14.33;;
1306;SDS011;646;48.696;9.114;2022-08-19T01:51:27;17.20;;;14.90;;
1306;SDS011;646;48.696;9.114;2022-08-19T01:53:52;16.93;;;15.23;;
1306;SDS011;646;48.696;9.114;2022-08-19T01:56:18;16.33;;;14.73;;
1306;SDS011;646;48.696;9.114;2022-08-19T01:58:45;17.27;;;15.57;;
1306;SDS011;646;48.696;9.114;2022-08-19T02:01:18;17.10;;;15.30;;
1306;SDS011;646;48.696;9.114;2022-08-19T02:03:44;17.13;;;14.87;;
1306;SDS011;646;48.696;9.114;2022-08-19T02:06:10;16.33;;;14.73;;
1306;SDS011;646;48.696;9.114;2022-08-19T02:08:37;16.13;;;14.47;;
1306;SDS011;646;48.696;9.114;2022-08-19T02:11:04;17.17;;;15.27;;
1306;SDS011;646;48.696;9.114;2022-08-19T02:13:31;16.70;;;15.00;;
1306;SDS011;646;48.696;9.114;2022-08-19T02:15:56;16.90;;;14.87;;
1306;SDS011;646;48.696;9.114;2022-08-19T02:18:22;17.33;;;15.10;;
1306;SDS011;646;48.696;9.114;2022-08-19T02:20:48;20.37;;;16.60;;
1306;SDS011;646;48.696;9.114;2022-08-19T02:23:14;20.43;;;16.37;;
1306;SDS011;646;48.696;9.114;2022-08-19T02:25:41;20.10;;;16.90;;
1306;SDS011;646;48.696;9.114;2022-08-19T02:28:09;18.20;;;16.33;;
1306;SDS011;646;48.696;9.114;2022-08-19T02:30:34;17.53;;;15.70;;
1306;SDS011;646;48.696;9.114;2022-08-19T02:33:00;18.70;;;16.70;;
1306;SDS011;646;48.696;9.114;2022-08-19T02:35:26;19.53;;;15.77;;
1306;SDS011;646;48.696;9.114;2022-08-19T02:37:51;18.27;;;16.27;;
1306;SDS011;646;48.696;9.114;2022-08-19T02:40:35;17.63;;;15.70;;
1306;SDS011;646;48.696;9.114;2022-08-19T02:43:02;18.83;;;16.93;;
1306;SDS011;646;48.696;9.114;2022-08-19T02:45:36;18.47;;;16.47;;
1306;SDS011;646;48.696;9.114;2022-08-19T02:48:02;19.23;;;16.20;;
1306;SDS011;646;48.696;9.114;2022-08-19T02:50:29;20.03;;;17.20;;
1306;SDS011;646;48.696;9.114;2022-08-19T02:52:55;23.50;;;17.00;;
1306;SDS011;646;48.696;9.114;2022-08-19T02:55:21;20.17;;;17.07;;
1306;SDS011;646;48.696;9.114;2022-08-19T02:57:47;19.97;;;17.87;;
1306;SDS011;646;48.696;9.114;2022-08-19T03:00:13;20.70;;;17.00;;
1306;SDS011;646;48.696;9.114;2022-08-19T03:02:39;21.47;;;17.90;;
1306;SDS011;646;48.696;9.114;2022-08-19T03:05:05;22.40;;;18.40;;
1306;SDS011;646;48.696;9.114;2022-08-19T03:07:33;18.50;;;16.67;;
1306;SDS011;646;48.696;9.114;2022-08-19T03:09:58;18.67;;;16.77;;
1306;SDS011;646;48.696;9.114;2022-08-19T03:12:24;18.63;;;16.70;;
1306;SDS011;646;48.696;9.114;2022-08-19T03:14:49;20.07;;;17.00;;
1306;SDS011;646;48.696;9.114;2022-08-19T03:17:16;19.50;;;16.40;;
1306;SDS011;646;48.696;9.114;2022-08-19T03:19:41;20.20;;;16.90;;
1306;SDS011;646;48.696;9.114;2022-08-19T03:22:08;22.47;;;17.80;;
1306;SDS011;646;48.696;9.114;2022-08-19T03:24:33;20.20;;;17.20;;
1306;SDS011;646;48.696;9.114;2022-08-19T03:26:59;19.37;;;17.37;;
1306;SDS011;646;48.696;9.114;2022-08-19T03:29:27;19.70;;;17.57;;
1306;SDS011;646;48.696;9.114;2022-08-19T03:31:55;23.60;;;17.37;;
1306;SDS011;646;48.696;9.114;2022-08-19T03:34:23;20.40;;;18.30;;
1306;SDS011;646;48.696;9.114;2022-08-19T03:36:54;18.73;;;16.77;;
1306;SDS011;646;48.696;9.114;2022-08-19T03:39:22;20.80;;;17.43;;
1306;SDS011;646;48.696;9.114;2022-08-19T03:41:49;19.97;;;16.93;;
1306;SDS011;646;48.696;9.114;2022-08-19T03:44:18;20.03;;;17.90;;
1306;SDS011;646;48.696;9.114;2022-08-19T03:46:54;19.97;;;17.80;;
1306;SDS011;646;48.696;9.114;2022-08-19T03:49:22;20.03;;;17.60;;
1306;SDS011;646;48.696;9.114;2022-08-19T03:51:49;21.50;;;17.73;;
1306;SDS011;646;48.696;9.114;2022-08-19T03:54:17;20.37;;;17.40;;
1306;SDS011;646;48.696;9.114;2022-08-19T03:56:44;19.57;;;16.63;;
1306;SDS011;646;48.696;9.114;2022-08-19T03:59:12;21.93;;;18.70;;
1306;SDS011;646;48.696;9.114;2022-08-19T04:01:40;21.57;;;19.27;;
1306;SDS011;646;48.696;9.114;2022-08-19T04:04:06;22.10;;;17.53;;
1306;SDS011;646;48.696;9.114;2022-08-19T04:06:32;20.53;;;17.97;;
1306;SDS011;646;48.696;9.114;2022-08-19T04:09:01;24.80;;;19.50;;
1306;SDS011;646;48.696;9.114;2022-08-19T04:11:39;20.47;;;18.27;;
1306;SDS011;646;48.696;9.114;2022-08-19T04:14:07;21.93;;;18.27;;
1306;SDS011;646;48.696;9.114;2022-08-19T04:16:38;22.30;;;19.93;;
1306;SDS011;646;48.696;9.114;2022-08-19T04:19:04;22.17;;;19.60;;
1306;SDS011;646;48.696;9.114;2022-08-19T04:21:31;22.70;;;20.30;;
1306;SDS011;646;48.696;9.114;2022-08-19T04:23:57;26.00;;;20.67;;
1306;SDS011;646;48.696;9.114;2022-08-19T04:26:25;21.67;;;18.70;;
1306;SDS011;646;48.696;9.114;2022-08-19T04:28:53;23.30;;;20.77;;
1306;SDS011;646;48.696;9.114;2022-08-19T04:31:23;22.70;;;20.10;;
1306;SDS011;646;48.696;9.114;2022-08-19T04:33:55;23.67;;;20.37;;
1306;SDS011;646;48.696;9.114;2022-08-19T04:36:23;28.20;;;21.33;;
1306;SDS011;646;48.696;9.114;2022-08-19T04:38:55;24.33;;;20.47;;
1306;SDS011;646;48.696;9.114;2022-08-19T04:41:22;23.20;;;18.93;;
1306;SDS011;646;48.696;9.114;2022-08-19T04:44:07;24.50;;;20.27;;
1306;SDS011;646;48.696;9.114;2022-08-19T04:46:33;23.47;;;19.80;;
1306;SDS011;646;48.696;9.114;2022-08-19T04:48:59;24.50;;;20.87;;
1306;SDS011;646;48.696;9.114;2022-08-19T04:51:26;23.33;;;20.83;;
1306;SDS011;646;48.696;9.114;2022-08-19T04:53:52;24.40;;;20.47;;
1306;SDS011;646;48.696;9.114;2022-08-19T04:56:18;25.17;;;21.57;;
1306;SDS011;646;48.696;9.114;2022-08-19T04:58:47;24.33;;;19.40;;
1306;SDS011;646;48.696;9.114;2022-08-19T05:01:14;21.77;;;19.43;;
1306;SDS011;646;48.696;9.114;2022-08-19T05:03:47;25.27;;;20.70;;
1306;SDS011;646;48.696;9.114;2022-08-19T05:06:13;22.77;;;19.90;;
1306;SDS011;646;48.696;9.114;2022-08-19T05:08:40;22.63;;;19.27;;
1306;SDS011;646;48.696;9.114;2022-08-19T05:11:09;24.13;;;19.63;;
1306;SDS011;646;48.696;9.114;2022-08-19T05:13:38;22.37;;;19.17;;
1306;SDS011;646;48.696;9.114;2022-08-19T05:16:03;21.43;;;19.33;;
1306;SDS011;646;48.696;9.114;2022-08-19T05:18:29;22.13;;;19.83;;
1306;SDS011;646;48.696;9.114;2022-08-19T05:21:14;25.77;;;22.30;;
1306;SDS011;646;48.696;9.114;2022-08-19T05:24:00;21.10;;;19.00;;
1306;SDS011;646;48.696;9.114;2022-08-19T05:26:27;21.80;;;19.50;;
1306;SDS011;646;48.696;9.114;2022-08-19T05:28:52;21.60;;;19.40;;
1306;SDS011;646;48.696;9.114;2022-08-19T05:31:18;24.30;;;21.73;;
1306;SDS011;646;48.696;9.114;2022-08-19T05:33:44;22.17;;;19.30;;
1306;SDS011;646;48.696;9.114;2022-08-19T05:36:10;22.00;;;19.40;;
1306;SDS011;646;48.696;9.114;2022-08-19T05:38:36;21.30;;;19.00;;
1306;SDS011;646;48.696;9.114;2022-08-19T05:41:12;19.57;;;17.47;;
1306;SDS011;646;48.696;9.114;2022-08-19T05:43:39;22.37;;;20.07;;
1306;SDS011;646;48.696;9.114;2022-08-19T05:46:05;22.30;;;19.10;;
1306;SDS011;646;48.696;9.114;2022-08-19T05:48:32;19.27;;;17.27;;
1306;SDS011;646;48.696;9.114;2022-08-19T05:50:58;23.17;;;18.40;;
1306;SDS011;646;48.696;9.114;2022-08-19T05:53:33;24.60;;;20.73;;
1306;SDS011;646;48.696;9.114;2022-08-19T05:56:09;20.80;;;18.20;;
1306;SDS011;646;48.696;9.114;2022-08-19T05:58:41;21.93;;;19.63;;
1306;SDS011;646;48.696;9.114;2022-08-19T06:01:12;21.00;;;18.90;;
1306;SDS011;646;48.696;9.114;2022-08-19T06:03:41;20.50;;;18.40;;
1306;SDS011;646;48.696;9.114;2022-08-19T06:06:07;23.23;;;20.03;;
1306;SDS011;646;48.696;9.114;2022-08-19T06:08:35;18.57;;;16.70;;
1306;SDS011;646;48.696;9.114;2022-08-19T06:11:21;23.13;;;19.43;;
1306;SDS011;646;48.696;9.114;2022-08-19T06:13:49;21.80;;;18.30;;
1306;SDS011;646;48.696;9.114;2022-08-19T06:16:21;20.53;;;18.37;;
1306;SDS011;646;48.696;9.114;2022-08-19T06:18:54;19.53;;;17.53;;
1306;SDS011;646;48.696;9.114;2022-08-19T06:21:22;21.80;;;19.47;;
1306;SDS011;646;48.696;9.114;2022-08-19T06:23:50;19.83;;;17.30;;
1306;SDS011;646;48.696;9.114;2022-08-19T06:26:17;23.80;;;20.10;;
1306;SDS011;646;48.696;9.114;2022-08-19T06:28:45;21.07;;;18.80;;
1306;SDS011;646;48.696;9.114;2022-08-19T06:31:21;22.33;;;19.20;;
1306;SDS011;646;48.696;9.114;2022-08-19T06:33:49;21.43;;;18.37;;
1306;SDS011;646;48.696;9.114;2022-08-19T06:36:22;23.13;;;20.67;;
1306;SDS011;646;48.696;9.114;2022-08-19T06:38:56;20.73;;;18.50;;
1306;SDS011;646;48.696;9.114;2022-08-19T06:41:23;20.37;;;18.27;;
1306;SDS011;646;48.696;9.114;2022-08-19T06:43:50;22.17;;;19.87;;
1306;SDS011;646;48.696;9.114;2022-08-19T06:46:16;21.27;;;18.17;;
1306;SDS011;646;48.696;9.114;2022-08-19T06:48:43;22.17;;;19.77;;
1306;SDS011;646;48.696;9.114;2022-08-19T06:51:09;19.73;;;17.73;;
1306;SDS011;646;48.696;9.114;2022-08-19T06:53:35;20.90;;;18.67;;
1306;SDS011;646;48.696;9.114;2022-08-19T06:56:00;21.60;;;19.13;;
1306;SDS011;646;48.696;9.114;2022-08-19T06:58:27;21.60;;;19.37;;
1306;SDS011;646;48.696;9.114;2022-08-19T07:00:57;23.50;;;19.87;;
1306;SDS011;646;48.696;9.114;2022-08-19T07:03:27;24.80;;;20.03;;
1306;SDS011;646;48.696;9.114;2022-08-19T07:05:54;20.50;;;18.30;;
1306;SDS011;646;48.696;9.114;2022-08-19T07:08:19;19.23;;;17.10;;
1306;SDS011;646;48.696;9.114;2022-08-19T07:10:45;20.20;;;18.07;;
1306;SDS011;646;48.696;9.114;2022-08-19T07:13:10;20.80;;;18.57;;
1306;SDS011;646;48.696;9.114;2022-08-19T07:15:36;21.00;;;18.40;;
1306;SDS011;646;48.696;9.114;2022-08-19T07:18:02;22.20;;;19.90;;
1306;SDS011;646;48.696;9.114;2022-08-19T07:20:28;20.40;;;18.27;;
1306;SDS011;646;48.696;9.114;2022-08-19T07:22:53;19.50;;;17.50;;
1306;SDS011;646;48.696;9.114;2022-08-19T07:25:19;22.00;;;18.47;;
1306;SDS011;646;48.696;9.114;2022-08-19T07:27:45;24.70;;;20.90;;
1306;SDS011;646;48.696;9.114;2022-08-19T07:30:13;21.03;;;18.27;;
1306;SDS011;646;48.696;9.114;2022-08-19T07:32:39;19.67;;;17.57;;
1306;SDS011;646;48.696;9.114;2022-08-19T07:35:05;20.03;;;17.93;;
1306;SDS011;646;48.696;9.114;2022-08-19T07:37:32;20.97;;;18.70;;
1306;SDS011;646;48.696;9.114;2022-08-19T07:39:58;22.97;;;19.80;;
1306;SDS011;646;48.696;9.114;2022-08-19T07:42:25;22.13;;;19.37;;
1306;SDS011;646;48.696;9.114;2022-08-19T07:44:51;24.03;;;20.30;;
1306;SDS011;646;48.696;9.114;2022-08-19T07:47:17;20.33;;;18.13;;
1306;SDS011;646;48.696;9.114;2022-08-19T07:49:43;20.10;;;17.93;;
1306;SDS011;646;48.696;9.114;2022-08-19T07:52:09;22.00;;;19.50;;
1306;SDS011;646;48.696;9.114;2022-08-19T07:54:36;19.90;;;17.77;;
1306;SDS011;646;48.696;9.114;2022-08-19T07:57:03;20.43;;;18.20;;
1306;SDS011;646;48.696;9.114;2022-08-19T07:59:29;21.30;;;18.17;;
1306;SDS011;646;48.696;9.114;2022-08-19T08:01:55;19.13;;;17.27;;
1306;SDS011;646;48.696;9.114;2022-08-19T08:04:22;22.60;;;19.67;;
1306;SDS011;646;48.696;9.114;2022-08-19T08:07:06;19.57;;;17.57;;
1306;SDS011;646;48.696;9.114;2022-08-19T08:09:51;18.07;;;16.20;;
1306;SDS011;646;48.696;9.114;2022-08-19T08:12:22;20.90;;;18.40;;
1306;SDS011;646;48.696;9.114;2022-08-19T08:14:54;18.00;;;16.17;;
1306;SDS011;646;48.696;9.114;2022-08-19T08:17:23;21.47;;;18.87;;
1306;SDS011;646;48.696;9.114;2022-08-19T08:19:51;21.67;;;18.50;;
1306;SDS011;646;48.696;9.114;2022-08-19T08:22:18;20.33;;;18.17;;
1306;SDS011;646;48.696;9.114;2022-08-19T08:25:12;18.80;;;16.90;;
1306;SDS011;646;48.696;9.114;2022-08-19T08:27:44;20.23;;;18.23;;
1306;SDS011;646;48.696;9.114;2022-08-19T08:30:11;18.80;;;16.80;;
1306;SDS011;646;48.696;9.114;2022-08-19T08:32:45;20.50;;;18.30;;
1306;SDS011;646;48.696;9.114;2022-08-19T08:35:12;19.33;;;17.33;;
1306;SDS011;646;48.696;9.114;2022-08-19T08:37:40;21.87;;;18.73;;
1306;SDS011;646;48.696;9.114;2022-08-19T08:40:06;20.90;;;18.70;;
1306;SDS011;646;48.696;9.114;2022-08-19T08:42:43;19.90;;;17.80;;
1306;SDS011;646;48.696;9.114;2022-08-19T08:45:18;21.70;;;18.47;;
1306;SDS011;646;48.696;9.114;2022-08-19T08:47:44;20.33;;;18.17;;
1306;SDS011;646;48.696;9.114;2022-08-19T08:52:41;21.40;;;18.57;;
1306;SDS011;646;48.696;9.114;2022-08-19T08:55:12;25.20;;;20.90;;
1306;SDS011;646;48.696;9.114;2022-08-19T09:00:21;21.70;;;19.37;;
1306;SDS011;646;48.696;9.114;2022-08-19T09:02:54;21.47;;;19.17;;
1306;SDS011;646;48.696;9.114;2022-08-19T09:05:22;23.07;;;19.50;;
1306;SDS011;646;48.696;9.114;2022-08-19T09:08:08;22.33;;;19.37;;
1306;SDS011;646;48.696;9.114;2022-08-19T09:10:49;20.17;;;18.00;;
1306;SDS011;646;48.696;9.114;2022-08-19T09:21:06;21.97;;;19.67;;
1306;SDS011;646;48.696;9.114;2022-08-19T09:23:33;22.17;;;19.77;;
1306;SDS011;646;48.696;9.114;2022-08-19T09:25:59;22.80;;;20.37;;
1306;SDS011;646;48.696;9.114;2022-08-19T09:28:25;22.13;;;19.77;;
1306;SDS011;646;48.696;9.114;2022-08-19T09:30:51;21.37;;;18.63;;
1306;SDS011;646;48.696;9.114;2022-08-19T09:33:16;21.30;;;19.20;;
1306;SDS011;646;48.696;9.114;2022-08-19T09:35:42;19.57;;;17.53;;
1306;SDS011;646;48.696;9.114;2022-08-19T09:38:07;21.50;;;19.30;;
1306;SDS011;646;48.696;9.114;2022-08-19T09:40:33;21.57;;;18.40;;
1306;SDS011;646;48.696;9.114;2022-08-19T09:42:58;21.20;;;18.90;;
1306;SDS011;646;48.696;9.114;2022-08-19T09:45:27;21.13;;;17.63;;
1306;SDS011;646;48.696;9.114;2022-08-19T09:47:53;20.50;;;18.40;;
1306;SDS011;646;48.696;9.114;2022-08-19T09:50:19;21.80;;;18.00;;
1306;SDS011;646;48.696;9.114;2022-08-19T09:52:45;22.87;;;18.53;;
1306;SDS011;646;48.696;9.114;2022-08-19T09:55:11;19.93;;;17.73;;
1306;SDS011;646;48.696;9.114;2022-08-19T09:57:37;22.30;;;19.50;;
1306;SDS011;646;48.696;9.114;2022-08-19T10:00:04;19.03;;;17.03;;
1306;SDS011;646;48.696;9.114;2022-08-19T10:02:31;20.47;;;18.17;;
1306;SDS011;646;48.696;9.114;2022-08-19T10:04:56;19.90;;;17.83;;
1306;SDS011;646;48.696;9.114;2022-08-19T10:07:40;19.90;;;17.90;;
1306;SDS011;646;48.696;9.114;2022-08-19T10:10:06;18.70;;;16.70;;
1306;SDS011;646;48.696;9.114;2022-08-19T10:12:33;21.43;;;19.27;;
1306;SDS011;646;48.696;9.114;2022-08-19T10:14:59;18.90;;;17.00;;
1306;SDS011;646;48.696;9.114;2022-08-19T10:17:25;18.67;;;16.87;;
1306;SDS011;646;48.696;9.114;2022-08-19T10:19:51;20.37;;;18.27;;
1306;SDS011;646;48.696;9.114;2022-08-19T10:22:17;18.90;;;16.83;;
1306;SDS011;646;48.696;9.114;2022-08-19T10:24:43;18.83;;;16.93;;
1306;SDS011;646;48.696;9.114;2022-08-19T10:27:10;24.50;;;17.93;;
1306;SDS011;646;48.696;9.114;2022-08-19T10:29:37;18.70;;;16.70;;
1306;SDS011;646;48.696;9.114;2022-08-19T10:32:04;21.27;;;18.97;;
1306;SDS011;646;48.696;9.114;2022-08-19T10:34:33;18.70;;;16.70;;
1306;SDS011;646;48.696;9.114;2022-08-19T10:37:01;19.67;;;17.57;;
1306;SDS011;646;48.696;9.114;2022-08-19T10:39:30;17.97;;;16.17;;
1306;SDS011;646;48.696;9.114;2022-08-19T10:42:04;18.27;;;16.37;;
1306;SDS011;646;48.696;9.114;2022-08-19T10:44:31;19.67;;;17.67;;
1306;SDS011;646;48.696;9.114;2022-08-19T10:46:57;18.10;;;16.30;;
1306;SDS011;646;48.696;9.114;2022-08-19T10:49:23;17.47;;;15.57;;
1306;SDS011;646;48.696;9.114;2022-08-19T10:51:49;16.17;;;14.47;;
1306;SDS011;646;48.696;9.114;2022-08-19T10:54:33;17.17;;;15.47;;
1306;SDS011;646;48.696;9.114;2022-08-19T10:57:17;14.83;;;13.00;;
1306;SDS011;646;48.696;9.114;2022-08-19T10:59:43;16.57;;;14.90;;
1306;SDS011;646;48.696;9.114;2022-08-19T11:02:09;14.93;;;13.50;;
1306;SDS011;646;48.696;9.114;2022-08-19T11:04:37;17.23;;;15.57;;
1306;SDS011;646;48.696;9.114;2022-08-19T11:07:03;15.80;;;14.40;;
1306;SDS011;646;48.696;9.114;2022-08-19T11:09:29;15.83;;;14.23;;
1306;SDS011;646;48.696;9.114;2022-08-19T11:11:55;17.43;;;14.93;;
1306;SDS011;646;48.696;9.114;2022-08-19T11:14:22;15.20;;;13.80;;
1306;SDS011;646;48.696;9.114;2022-08-19T11:16:50;15.73;;;13.97;;
1306;SDS011;646;48.696;9.114;2022-08-19T11:19:18;16.27;;;14.43;;
1306;SDS011;646;48.696;9.114;2022-08-19T11:21:45;15.77;;;14.27;;
1306;SDS011;646;48.696;9.114;2022-08-19T11:24:14;16.20;;;14.47;;
1306;SDS011;646;48.696;9.114;2022-08-19T11:26:42;15.33;;;13.80;;
1306;SDS011;646;48.696;9.114;2022-08-19T11:29:09;14.93;;;13.53;;
1306;SDS011;646;48.696;9.114;2022-08-19T11:31:37;15.57;;;14.17;;
1306;SDS011;646;48.696;9.114;2022-08-19T11:34:06;14.70;;;13.13;;
1306;SDS011;646;48.696;9.114;2022-08-19T11:36:33;15.00;;;13.50;;
1306;SDS011;646;48.696;9.114;2022-08-19T11:39:02;14.50;;;13.00;;
1306;SDS011;646;48.696;9.114;2022-08-19T11:41:28;15.00;;;13.40;;
1306;SDS011;646;48.696;9.114;2022-08-19T11:43:54;14.60;;;13.20;;
1306;SDS011;646;48.696;9.114;2022-08-19T11:46:20;14.37;;;13.10;;
1306;SDS011;646;48.696;9.114;2022-08-19T11:48:48;14.10;;;12.80;;
1306;SDS011;646;48.696;9.114;2022-08-19T11:51:16;13.90;;;12.70;;
1306;SDS011;646;48.696;9.114;2022-08-19T11:53:43;14.20;;;12.87;;
1306;SDS011;646;48.696;9.114;2022-08-19T11:56:09;13.20;;;12.03;;
1306;SDS011;646;48.696;9.114;2022-08-19T11:58:35;13.80;;;12.40;;
1306;SDS011;646;48.696;9.114;2022-08-19T12:01:04;13.97;;;12.70;;
1306;SDS011;646;48.696;9.114;2022-08-19T12:03:30;14.10;;;12.80;;
1306;SDS011;646;48.696;9.114;2022-08-19T12:05:56;12.40;;;11.10;;
1306;SDS011;646;48.696;9.114;2022-08-19T12:08:21;13.20;;;12.00;;
1306;SDS011;646;48.696;9.114;2022-08-19T12:10:47;12.47;;;11.33;;
1306;SDS011;646;48.696;9.114;2022-08-19T12:13:13;13.03;;;11.93;;
1306;SDS011;646;48.696;9.114;2022-08-19T12:15:46;13.17;;;11.87;;
1306;SDS011;646;48.696;9.114;2022-08-19T12:18:12;12.47;;;11.37;;
1306;SDS011;646;48.696;9.114;2022-08-19T12:20:39;12.30;;;11.30;;
1306;SDS011;646;48.696;9.114;2022-08-19T12:23:07;13.00;;;11.90;;
1306;SDS011;646;48.696;9.114;2022-08-19T12:25:34;11.73;;;10.63;;
1306;SDS011;646;48.696;9.114;2022-08-19T12:28:00;12.57;;;11.43;;
1306;SDS011;646;48.696;9.114;2022-08-19T12:30:26;11.67;;;10.70;;
1306;SDS011;646;48.696;9.114;2022-08-19T12:32:52;11.43;;;10.47;;
1306;SDS011;646;48.696;9.114;2022-08-19T12:35:18;10.70;;;9.80;;
1306;SDS011;646;48.696;9.114;2022-08-19T12:37:45;12.60;;;11.50;;
1306;SDS011;646;48.696;9.114;2022-08-19T12:40:11;12.10;;;11.00;;
1306;SDS011;646;48.696;9.114;2022-08-19T12:42:38;14.93;;;13.60;;
1306;SDS011;646;48.696;9.114;2022-08-19T12:45:07;12.40;;;11.33;;
1306;SDS011;646;48.696;9.114;2022-08-19T12:47:33;18.17;;;16.37;;
1306;SDS011;646;48.696;9.114;2022-08-19T12:49:59;15.00;;;13.70;;
1306;SDS011;646;48.696;9.114;2022-08-19T12:52:25;16.43;;;15.03;;
1306;SDS011;646;48.696;9.114;2022-08-19T12:54:53;15.90;;;14.60;;
1306;SDS011;646;48.696;9.114;2022-08-19T12:57:21;17.80;;;16.20;;
1306;SDS011;646;48.696;9.114;2022-08-19T12:59:53;17.60;;;15.97;;
1306;SDS011;646;48.696;9.114;2022-08-19T13:02:19;17.30;;;15.60;;
1306;SDS011;646;48.696;9.114;2022-08-19T13:04:45;19.47;;;17.40;;
1306;SDS011;646;48.696;9.114;2022-08-19T13:07:11;18.57;;;16.70;;
1306;SDS011;646;48.696;9.114;2022-08-19T13:09:36;17.47;;;15.63;;
1306;SDS011;646;48.696;9.114;2022-08-19T13:12:03;17.50;;;15.83;;
1306;SDS011;646;48.696;9.114;2022-08-19T13:14:32;17.57;;;15.97;;
1306;SDS011;646;48.696;9.114;2022-08-19T13:16:59;19.20;;;17.30;;
1306;SDS011;646;48.696;9.114;2022-08-19T13:19:25;18.70;;;16.80;;
1306;SDS011;646;48.696;9.114;2022-08-19T13:21:51;19.73;;;17.93;;
1306;SDS011;646;48.696;9.114;2022-08-19T13:24:18;18.37;;;16.57;;
1306;SDS011;646;48.696;9.114;2022-08-19T13:26:43;22.87;;;20.47;;
1306;SDS011;646;48.696;9.114;2022-08-19T13:29:09;20.63;;;18.63;;
1306;SDS011;646;48.696;9.114;2022-08-19T13:31:53;18.43;;;16.73;;
1306;SDS011;646;48.696;9.114;2022-08-19T13:34:37;20.50;;;18.37;;
1306;SDS011;646;48.696;9.114;2022-08-19T13:37:03;21.33;;;19.23;;
1306;SDS011;646;48.696;9.114;2022-08-19T13:39:30;18.03;;;16.13;;
1306;SDS011;646;48.696;9.114;2022-08-19T13:41:59;18.23;;;16.43;;
1306;SDS011;646;48.696;9.114;2022-08-19T13:44:26;20.50;;;18.23;;
1306;SDS011;646;48.696;9.114;2022-08-19T13:46:54;22.20;;;19.80;;
1306;SDS011;646;48.696;9.114;2022-08-19T13:49:31;23.93;;;21.17;;
1306;SDS011;646;48.696;9.114;2022-08-19T13:51:57;28.03;;;19.93;;
1306;SDS011;646;48.696;9.114;2022-08-19T13:54:22;21.67;;;19.47;;
1306;SDS011;646;48.696;9.114;2022-08-19T13:56:48;29.30;;;21.27;;
1306;SDS011;646;48.696;9.114;2022-08-19T13:59:13;26.20;;;21.03;;
1306;SDS011;646;48.696;9.114;2022-08-19T14:01:39;27.03;;;22.60;;
1306;SDS011;646;48.696;9.114;2022-08-19T14:04:06;24.00;;;21.43;;
1306;SDS011;646;48.696;9.114;2022-08-19T14:06:32;23.13;;;20.70;;
1306;SDS011;646;48.696;9.114;2022-08-19T14:08:58;19.67;;;17.67;;
1306;SDS011;646;48.696;9.114;2022-08-19T14:11:24;20.67;;;18.67;;
1306;SDS011;646;48.696;9.114;2022-08-19T14:13:50;21.03;;;18.90;;
1306;SDS011;646;48.696;9.114;2022-08-19T14:16:15;21.70;;;19.37;;
1306;SDS011;646;48.696;9.114;2022-08-19T14:18:41;23.40;;;20.90;;
1306;SDS011;646;48.696;9.114;2022-08-19T14:21:08;22.67;;;20.37;;
1306;SDS011;646;48.696;9.114;2022-08-19T14:23:44;22.53;;;20.23;;
1306;SDS011;646;48.696;9.114;2022-08-19T14:26:12;22.40;;;20.10;;
1306;SDS011;646;48.696;9.114;2022-08-19T14:28:40;20.57;;;18.60;;
1306;SDS011;646;48.696;9.114;2022-08-19T14:31:07;25.00;;;22.37;;
1306;SDS011;646;48.696;9.114;2022-08-19T14:33:33;21.63;;;19.50;;
1306;SDS011;646;48.696;9.114;2022-08-19T14:35:59;21.67;;;19.47;;
1306;SDS011;646;48.696;9.114;2022-08-19T14:38:25;21.17;;;19.00;;
1306;SDS011;646;48.696;9.114;2022-08-19T14:40:51;21.77;;;19.70;;
1306;SDS011;646;48.696;9.114;2022-08-19T14:43:17;23.80;;;21.27;;
1306;SDS011;646;48.696;9.114;2022-08-19T14:45:43;23.50;;;21.10;;
1306;SDS011;646;48.696;9.114;2022-08-19T14:48:09;22.63;;;20.30;;
1306;SDS011;646;48.696;9.114;2022-08-19T14:50:35;22.27;;;20.07;;
1306;SDS011;646;48.696;9.114;2022-08-19T14:53:06;23.13;;;20.53;;
1306;SDS011;646;48.696;9.114;2022-08-19T14:55:33;20.23;;;18.20;;
1306;SDS011;646;48.696;9.114;2022-08-19T14:57:59;20.50;;;18.60;;
1306;SDS011;646;48.696;9.114;2022-08-19T15:00:25;23.50;;;21.20;;
1306;SDS011;646;48.696;9.114;2022-08-19T15:02:51;19.40;;;17.60;;
1306;SDS011;646;48.696;9.114;2022-08-19T15:05:19;19.63;;;17.73;;
1306;SDS011;646;48.696;9.114;2022-08-19T15:07:45;19.10;;;17.40;;
1306;SDS011;646;48.696;9.114;2022-08-19T15:10:11;18.07;;;16.37;;
1306;SDS011;646;48.696;9.114;2022-08-19T15:12:38;18.27;;;16.53;;
1306;SDS011;646;48.696;9.114;2022-08-19T15:15:08;21.77;;;19.77;;
1306;SDS011;646;48.696;9.114;2022-08-19T15:17:39;17.90;;;16.30;;